createdAt,value
2019-01-06T00:01:35.259Z,0.05
2019-01-06T00:04:22.528Z,0.09
2019-01-06T00:10:18.923Z,0.10
2019-01-06T00:13:06.503Z,0.09
2019-01-06T00:15:53.052Z,0.08
2019-01-06T00:18:40.314Z,0.08
2019-01-06T00:21:27.592Z,0.13
2019-01-06T00:24:15.258Z,0.09
2019-01-06T00:27:03.123Z,0.08
2019-01-06T00:29:50.670Z,0.06
2019-01-06T00:32:38.316Z,0.11
2019-01-06T00:35:46.500Z,0.11
2019-01-06T00:38:34.265Z,0.12
2019-01-06T00:41:21.843Z,0.06
2019-01-06T00:44:09.602Z,0.07
2019-01-06T00:46:57.247Z,0.15
2019-01-06T00:49:44.822Z,0.17
2019-01-06T00:52:32.136Z,0.19
2019-01-06T00:55:19.938Z,0.19
2019-01-06T00:58:07.662Z,0.13
2019-01-06T01:00:54.584Z,0.03
2019-01-06T01:03:42.247Z,0.09
2019-01-06T01:06:29.536Z,0.18
2019-01-06T01:09:55.352Z,0.15
2019-01-06T01:12:43.090Z,0.08
2019-01-06T01:15:30.507Z,0.03
2019-01-06T01:18:17.440Z,0.09
2019-01-06T01:21:05.123Z,0.10
2019-01-06T01:23:52.876Z,0.14
2019-01-06T01:26:48.067Z,0.16
2019-01-06T01:29:29.942Z,0.15
2019-01-06T01:32:17.547Z,0.17
2019-01-06T01:35:05.202Z,0.13
2019-01-06T01:37:52.934Z,0.14
2019-01-06T01:40:40.643Z,0.16
2019-01-06T01:43:27.854Z,0.05
2019-01-06T01:46:13.919Z,0.03
2019-01-06T01:49:00.895Z,0.10
2019-01-06T01:51:47.486Z,0.16
2019-01-06T01:54:34.748Z,0.15
2019-01-06T01:57:22.387Z,0.16
2019-01-06T02:00:09.683Z,0.11
2019-01-06T02:02:57.345Z,0.15
2019-01-06T02:05:44.972Z,0.12
2019-01-06T02:08:32.688Z,0.11
2019-01-06T02:11:20.367Z,0.15
2019-01-06T02:14:07.650Z,0.09
2019-01-06T02:16:54.517Z,0.11
2019-01-06T02:19:41.829Z,0.11
2019-01-06T02:22:29.175Z,0.05
2019-01-06T02:25:16.791Z,0.07
2019-01-06T02:28:04.401Z,0.02
2019-01-06T02:30:52.064Z,0.07
2019-01-06T02:33:39.314Z,0.14
2019-01-06T02:36:26.982Z,0.13
2019-01-06T02:39:14.688Z,0.07
2019-01-06T02:42:02.322Z,0.06
2019-01-06T02:44:49.646Z,0.07
2019-01-06T02:47:36.937Z,0.09
2019-01-06T02:50:24.729Z,0.15
2019-01-06T02:53:12.302Z,0.13
2019-01-06T02:56:00.006Z,0.12
2019-01-06T02:58:47.662Z,0.04
2019-01-06T03:01:35.376Z,0.08
2019-01-06T03:04:22.585Z,0.15
2019-01-06T03:07:29.350Z,0.11
2019-01-06T03:10:16.996Z,0.09
2019-01-06T03:13:04.255Z,0.07
2019-01-06T03:15:51.997Z,0.06
2019-01-06T03:18:39.738Z,0.13
2019-01-06T03:21:26.612Z,0.11
2019-01-06T03:24:04.659Z,0.14
2019-01-06T03:26:51.978Z,0.11
2019-01-06T03:29:39.726Z,0.05
2019-01-06T03:32:27.423Z,0.11
2019-01-06T03:35:15.139Z,0.14
2019-01-06T03:38:03.890Z,0.13
2019-01-06T03:40:51.493Z,0.16
2019-01-06T03:43:39.126Z,0.14
2019-01-06T03:46:26.827Z,0.07
2019-01-06T03:49:14.172Z,0.07
2019-01-06T03:52:01.809Z,0.07
2019-01-06T03:54:49.104Z,0.11
2019-01-06T03:57:35.939Z,0.12
2019-01-06T04:00:23.287Z,0.06
2019-01-06T04:03:10.834Z,0.09
2019-01-06T04:05:55.824Z,0.04
2019-01-06T04:08:43.628Z,0.07
2019-01-06T04:11:31.159Z,0.05
2019-01-06T04:14:18.762Z,0.04
2019-01-06T04:17:05.998Z,0.04
2019-01-06T04:19:53.179Z,0.06
2019-01-06T04:22:40.856Z,0.05
2019-01-06T04:25:28.364Z,0.08
2019-01-06T04:28:16.120Z,0.06
2019-01-06T04:31:03.707Z,0.06
2019-01-06T04:33:51.458Z,0.06
2019-01-06T04:36:38.760Z,0.06
2019-01-06T04:39:27.492Z,0.04
2019-01-06T04:42:15.158Z,-0.01
2019-01-06T04:45:02.715Z,0.03
2019-01-06T04:47:50.263Z,0.04
2019-01-06T04:50:37.477Z,-0.04
2019-01-06T04:53:20.767Z,-0.06
2019-01-06T04:56:07.932Z,0.03
2019-01-06T04:58:55.499Z,0.05
2019-01-06T05:01:43.049Z,-0.01
2019-01-06T05:04:30.277Z,-0.01
2019-01-06T05:07:17.784Z,-0.03
2019-01-06T05:10:05.024Z,-0.02
2019-01-06T05:12:52.306Z,-0.02
2019-01-06T05:15:39.862Z,-0.11
2019-01-06T05:18:27.472Z,-0.10
2019-01-06T05:21:15.097Z,-0.11
2019-01-06T05:24:02.462Z,-0.05
2019-01-06T05:26:50.094Z,-0.06
2019-01-06T05:29:37.299Z,-0.04
2019-01-06T05:32:24.526Z,-0.06
2019-01-06T05:35:11.743Z,-0.07
2019-01-06T05:37:59.505Z,-0.11
2019-01-06T05:40:47.131Z,-0.10
2019-01-06T05:43:34.497Z,-0.04
2019-01-06T05:46:21.741Z,0.01
2019-01-06T05:49:09.282Z,-0.05
2019-01-06T05:51:56.865Z,-0.06
2019-01-06T05:54:44.540Z,-0.04
2019-01-06T05:57:32.139Z,-0.07
2019-01-06T06:00:19.478Z,-0.12
2019-01-06T06:03:07.157Z,-0.09
2019-01-06T06:05:54.928Z,-0.10
2019-01-06T06:08:42.154Z,-0.12
2019-01-06T06:11:29.933Z,-0.18
2019-01-06T06:14:17.585Z,-0.12
2019-01-06T06:17:04.839Z,-0.06
2019-01-06T06:19:51.864Z,-0.11
2019-01-06T06:22:34.864Z,-0.10
2019-01-06T06:25:22.167Z,-0.08
2019-01-06T06:28:09.732Z,-0.08
2019-01-06T06:30:57.311Z,-0.12
2019-01-06T06:33:44.489Z,-0.06
2019-01-06T06:36:32.211Z,-0.10
2019-01-06T06:39:19.409Z,-0.05
2019-01-06T06:42:07.163Z,-0.11
2019-01-06T06:44:54.479Z,-0.05
2019-01-06T06:47:41.758Z,-0.03
2019-01-06T06:50:28.977Z,-0.06
2019-01-06T06:53:16.202Z,-0.08
2019-01-06T06:56:03.517Z,-0.09
2019-01-06T06:58:51.268Z,-0.09
2019-01-06T07:02:16.775Z,-0.07
2019-01-06T07:05:04.265Z,-0.05
2019-01-06T07:07:51.631Z,-0.02
2019-01-06T07:10:39.315Z,-0.07
2019-01-06T07:13:26.930Z,-0.14
2019-01-06T07:16:13.773Z,-0.17
2019-01-06T07:19:01.168Z,-0.16
2019-01-06T07:21:48.879Z,-0.16
2019-01-06T07:24:36.508Z,-0.10
2019-01-06T07:27:23.419Z,-0.11
2019-01-06T07:30:11.007Z,-0.14
2019-01-06T07:32:58.276Z,-0.14
2019-01-06T07:35:45.525Z,-0.10
2019-01-06T07:38:33.384Z,-0.08
2019-01-06T07:41:21.090Z,-0.04
2019-01-06T07:44:08.342Z,-0.05
2019-01-06T07:46:55.900Z,-0.08
2019-01-06T07:49:43.592Z,-0.01
2019-01-06T07:52:20.818Z,-0.05
2019-01-06T07:55:08.150Z,0.04
2019-01-06T07:57:55.863Z,0.05
2019-01-06T08:00:43.259Z,0.01
2019-01-06T08:03:30.818Z,-0.05
2019-01-06T08:06:18.144Z,0.06
2019-01-06T08:09:05.786Z,0.08
2019-01-06T08:11:53.091Z,0.01
2019-01-06T08:14:40.789Z,0.04
2019-01-06T08:17:28.102Z,0.03
2019-01-06T08:20:15.538Z,0.06
2019-01-06T08:23:03.397Z,0.09
2019-01-06T08:25:51.218Z,0.07
2019-01-06T08:28:38.932Z,0.11
2019-01-06T08:31:19.884Z,0.10
2019-01-06T08:34:07.125Z,0.16
2019-01-06T08:36:54.445Z,0.21
2019-01-06T08:39:42.177Z,0.21
2019-01-06T08:42:27.951Z,0.14
2019-01-06T08:45:15.579Z,0.24
2019-01-06T08:48:03.018Z,0.22
2019-01-06T08:50:50.553Z,0.29
2019-01-06T09:00:23.923Z,0.25
2019-01-06T09:03:19.154Z,0.20
2019-01-06T09:06:07.353Z,0.32
2019-01-06T09:08:54.619Z,0.38
2019-01-06T09:11:42.284Z,0.38
2019-01-06T09:14:29.596Z,0.33
2019-01-06T09:17:17.319Z,0.31
2019-01-06T09:19:58.599Z,0.33
2019-01-06T09:22:46.334Z,0.41
2019-01-06T09:25:40.870Z,0.40
2019-01-06T09:28:23.060Z,0.43
2019-01-06T09:31:09.950Z,0.48
2019-01-06T09:33:57.175Z,0.48
2019-01-06T09:36:44.920Z,0.59
2019-01-06T09:39:32.683Z,0.62
2019-01-06T09:42:20.398Z,0.71
2019-01-06T09:45:07.869Z,0.75
2019-01-06T09:47:55.148Z,0.86
2019-01-06T09:50:42.127Z,0.82
2019-01-06T09:53:29.028Z,0.73
2019-01-06T09:56:16.723Z,0.78
2019-01-06T09:59:01.228Z,0.73
2019-01-06T10:01:48.759Z,0.72
2019-01-06T10:04:36.580Z,0.71
2019-01-06T10:07:23.880Z,0.63
2019-01-06T10:10:11.613Z,0.77
2019-01-06T10:12:59.228Z,0.84
2019-01-06T10:15:46.232Z,0.88
2019-01-06T10:18:33.470Z,0.83
2019-01-06T10:21:20.700Z,0.86
2019-01-06T10:24:08.492Z,0.85
2019-01-06T10:26:55.828Z,0.86
2019-01-06T10:29:43.098Z,0.86
2019-01-06T10:32:30.909Z,0.93
2019-01-06T10:35:18.551Z,1.02
2019-01-06T10:38:05.833Z,1.08
2019-01-06T10:40:53.582Z,1.12
2019-01-06T10:43:41.261Z,1.06
2019-01-06T10:46:28.192Z,0.99
2019-01-06T10:49:15.885Z,0.92
2019-01-06T10:52:03.598Z,1.01
2019-01-06T10:54:51.355Z,1.07
2019-01-06T10:57:38.899Z,1.20
2019-01-06T11:00:26.695Z,1.18
2019-01-06T11:03:14.331Z,1.13
2019-01-06T11:06:02.007Z,1.05
2019-01-06T11:08:49.663Z,1.08
2019-01-06T11:11:37.288Z,1.21
2019-01-06T11:14:24.647Z,1.17
2019-01-06T11:17:12.306Z,1.18
2019-01-06T11:19:59.942Z,1.22
2019-01-06T11:22:47.679Z,1.18
2019-01-06T11:25:34.972Z,1.10
2019-01-06T11:28:22.248Z,1.21
2019-01-06T11:31:09.981Z,1.06
2019-01-06T11:33:52.543Z,1.16
2019-01-06T11:36:40.280Z,1.27
2019-01-06T11:39:28.047Z,1.33
2019-01-06T11:42:09.363Z,1.30
2019-01-06T11:44:56.675Z,1.29
2019-01-06T11:47:44.312Z,1.30
2019-01-06T11:50:31.572Z,1.35
2019-01-06T11:53:18.243Z,1.27
2019-01-06T11:56:05.509Z,1.32
2019-01-06T11:58:53.151Z,1.50
2019-01-06T12:01:40.629Z,1.67
2019-01-06T12:04:27.802Z,1.56
2019-01-06T12:07:15.139Z,1.60
2019-01-06T12:10:02.344Z,1.77
2019-01-06T12:12:45.958Z,1.87
2019-01-06T12:15:33.178Z,1.73
2019-01-06T12:18:20.470Z,1.67
2019-01-06T12:21:08.136Z,1.66
2019-01-06T12:23:55.489Z,1.71
2019-01-06T12:26:43.214Z,1.67
2019-01-06T12:29:30.615Z,1.56
2019-01-06T12:32:18.009Z,1.54
2019-01-06T12:35:05.250Z,1.45
2019-01-06T12:37:53.017Z,1.45
2019-01-06T12:40:40.685Z,1.62
2019-01-06T12:43:27.996Z,1.72
2019-01-06T12:46:37.410Z,1.72
2019-01-06T12:49:25.224Z,1.65
2019-01-06T12:52:12.552Z,1.59
2019-01-06T12:54:59.839Z,1.59
2019-01-06T12:57:47.160Z,1.54
2019-01-06T13:00:34.776Z,1.57
2019-01-06T13:03:21.734Z,1.49
2019-01-06T13:06:09.298Z,1.35
2019-01-06T13:08:56.994Z,1.36
2019-01-06T13:11:44.324Z,1.42
2019-01-06T13:14:31.953Z,1.37
2019-01-06T13:17:19.714Z,1.35
2019-01-06T13:20:07.320Z,1.48
2019-01-06T13:22:54.904Z,1.56
2019-01-06T13:25:42.578Z,1.66
2019-01-06T13:28:29.934Z,1.60
2019-01-06T13:31:17.516Z,1.56
2019-01-06T13:34:04.762Z,1.49
2019-01-06T13:36:52.336Z,1.40
2019-01-06T13:39:39.530Z,1.32
2019-01-06T13:42:27.188Z,1.27
2019-01-06T13:45:14.768Z,1.15
2019-01-06T13:48:02.156Z,1.15
2019-01-06T13:50:49.811Z,1.12
2019-01-06T13:53:37.526Z,1.12
2019-01-06T13:56:25.162Z,1.01
2019-01-06T13:59:12.825Z,1.08
2019-01-06T14:01:59.748Z,1.03
2019-01-06T14:04:46.822Z,1.04
2019-01-06T14:07:34.431Z,1.04
2019-01-06T14:10:21.942Z,1.06
2019-01-06T14:13:09.447Z,0.97
2019-01-06T14:15:53.949Z,1.03
2019-01-06T14:18:41.550Z,0.93
2019-01-06T14:21:29.303Z,0.91
2019-01-06T14:24:16.747Z,0.80
2019-01-06T14:27:04.015Z,0.79
2019-01-06T14:29:51.044Z,0.83
2019-01-06T14:32:38.794Z,0.80
2019-01-06T14:35:26.551Z,0.82
2019-01-06T14:38:13.924Z,0.79
2019-01-06T14:41:01.676Z,0.74
2019-01-06T14:44:01.582Z,0.68
2019-01-06T14:46:48.890Z,0.70
2019-01-06T14:49:35.901Z,0.65
2019-01-06T14:52:23.626Z,0.67
2019-01-06T14:55:10.914Z,0.69
2019-01-06T14:57:58.765Z,0.72
2019-01-06T15:00:46.025Z,0.71
2019-01-06T15:03:28.777Z,0.81
2019-01-06T15:06:15.659Z,0.82
2019-01-06T15:09:03.413Z,0.78
2019-01-06T15:11:51.037Z,0.68
2019-01-06T15:14:38.277Z,0.70
2019-01-06T15:17:25.542Z,0.62
2019-01-06T15:20:05.957Z,0.63
2019-01-06T15:22:53.226Z,0.58
2019-01-06T15:25:40.772Z,0.54
2019-01-06T15:28:28.471Z,0.52
2019-01-06T15:31:21.679Z,0.52
2019-01-06T15:34:07.613Z,0.46
2019-01-06T15:36:54.947Z,0.38
2019-01-06T15:39:41.275Z,0.33
2019-01-06T15:42:37.581Z,0.31
2019-01-06T15:45:25.496Z,0.29
2019-01-06T15:48:11.215Z,0.21
2019-01-06T15:51:07.049Z,0.23
2019-01-06T15:54:08.708Z,0.29
2019-01-06T15:56:54.141Z,0.20
2019-01-06T15:59:56.180Z,0.24
2019-01-06T16:02:41.677Z,0.20
2019-01-06T16:05:32.017Z,0.23
2019-01-06T16:08:19.914Z,0.25
2019-01-06T16:11:07.560Z,0.25
2019-01-06T16:13:54.848Z,0.20
2019-01-06T16:16:41.776Z,0.20
2019-01-06T16:19:19.530Z,0.15
2019-01-06T16:22:06.789Z,0.22
2019-01-06T16:24:54.540Z,0.18
2019-01-06T16:27:42.197Z,0.13
2019-01-06T16:30:30.064Z,0.15
2019-01-06T16:33:17.638Z,0.16
2019-01-06T16:36:05.047Z,0.14
2019-01-06T16:38:53.270Z,0.18
2019-01-06T16:41:40.665Z,0.13
2019-01-06T16:44:28.298Z,0.08
2019-01-06T16:47:16.210Z,0.12
2019-01-06T16:50:03.585Z,0.15
2019-01-06T16:52:51.153Z,0.22
2019-01-06T16:55:38.632Z,0.28
2019-01-06T16:58:26.387Z,0.22
2019-01-06T17:01:13.716Z,0.18
2019-01-06T17:04:00.668Z,0.12
2019-01-06T17:06:50.491Z,0.12
2019-01-06T17:09:38.235Z,0.09
2019-01-06T17:12:26.220Z,0.09
2019-01-06T17:15:08.657Z,0.12
2019-01-06T17:17:56.285Z,0.16
2019-01-06T17:20:43.545Z,0.15
2019-01-06T17:23:31.735Z,0.21
2019-01-06T17:26:19.602Z,0.20
2019-01-06T17:29:06.576Z,0.18
2019-01-06T17:31:54.771Z,0.13
2019-01-06T17:34:42.455Z,0.12
2019-01-06T17:37:38.106Z,0.16
2019-01-06T17:40:18.880Z,0.18
2019-01-06T17:43:06.569Z,0.21
2019-01-06T17:45:53.849Z,0.20
2019-01-06T17:48:41.167Z,0.14
2019-01-06T17:51:25.467Z,0.14
2019-01-06T17:54:13.165Z,0.12
2019-01-06T17:57:01.466Z,0.09
2019-01-06T17:59:49.210Z,0.10
2019-01-06T18:02:36.483Z,0.10
2019-01-06T18:05:24.716Z,0.06
2019-01-06T18:08:12.351Z,0.08
2019-01-06T18:11:00.862Z,0.12
2019-01-06T18:13:48.142Z,0.14
2019-01-06T18:16:34.512Z,0.08
2019-01-06T18:19:21.413Z,0.04
2019-01-06T18:22:09.157Z,0.07
2019-01-06T18:24:56.141Z,0.15
2019-01-06T18:27:43.851Z,0.13
2019-01-06T18:30:31.259Z,0.10
2019-01-06T18:33:10.369Z,0.12
2019-01-06T18:35:57.826Z,0.12
2019-01-06T18:38:45.476Z,0.11
2019-01-06T18:41:33.145Z,0.10
2019-01-06T18:44:20.858Z,0.11
2019-01-06T18:47:08.185Z,0.17
2019-01-06T18:49:55.443Z,0.09
2019-01-06T18:52:43.277Z,0.02
2019-01-06T18:55:30.977Z,0.07
2019-01-06T18:58:18.296Z,0.18
2019-01-06T19:01:05.196Z,0.11
2019-01-06T19:03:53.042Z,0.18
2019-01-06T19:06:40.355Z,0.19
2019-01-06T19:09:28.133Z,0.11
2019-01-06T19:12:15.808Z,0.09
2019-01-06T19:15:03.422Z,0.13
2019-01-06T19:17:51.161Z,0.08
2019-01-06T19:20:38.872Z,0.05
2019-01-06T19:23:26.281Z,0.04
2019-01-06T19:26:13.151Z,0.11
2019-01-06T19:29:00.649Z,0.06
2019-01-06T19:31:48.476Z,0.03
2019-01-06T19:34:36.201Z,0.08
2019-01-06T19:37:23.521Z,0.04
2019-01-06T19:40:10.563Z,0.04
2019-01-06T19:42:58.156Z,0.02
2019-01-06T19:45:45.846Z,0.08
2019-01-06T19:48:33.650Z,0.03
2019-01-06T19:51:20.919Z,0.08
2019-01-06T19:54:08.766Z,0.05
2019-01-06T19:56:56.427Z,0.02
2019-01-06T19:59:44.122Z,0.02
2019-01-06T20:02:31.366Z,-0.08
2019-01-06T20:05:19.180Z,-0.04
2019-01-06T20:08:06.643Z,-0.09
2019-01-06T20:10:54.727Z,-0.01
2019-01-06T20:13:42.118Z,0.03
2019-01-06T20:16:29.441Z,0.03
2019-01-06T20:19:16.368Z,0.05
2019-01-06T20:22:03.645Z,0.04
2019-01-06T20:24:51.291Z,-0.02
2019-01-06T20:27:38.968Z,-0.01
2019-01-06T20:30:25.662Z,-0.03
2019-01-06T20:33:12.985Z,-0.03
2019-01-06T20:36:01.202Z,0.06
2019-01-06T20:38:48.951Z,-0.02
2019-01-06T20:41:36.311Z,0.06
2019-01-06T20:44:23.576Z,-0.03
2019-01-06T20:47:11.324Z,-0.01
2019-01-06T20:49:58.601Z,0.06
2019-01-06T20:52:45.631Z,0.06
2019-01-06T20:55:32.833Z,0.06
2019-01-06T20:58:20.236Z,0.07
2019-01-06T21:01:07.526Z,0.05
2019-01-06T21:03:54.818Z,0.08
2019-01-06T21:06:42.406Z,0.13
2019-01-06T21:09:30.145Z,0.18
2019-01-06T21:12:17.336Z,0.12
2019-01-06T21:15:05.501Z,0.12
2019-01-06T21:17:52.971Z,0.06
2019-01-06T21:20:40.992Z,0.11
2019-01-06T21:23:47.540Z,0.02
2019-01-06T21:26:35.308Z,0.10
2019-01-06T21:29:22.831Z,0.06
2019-01-06T21:32:10.399Z,0.06
2019-01-06T21:34:58.470Z,0.11
2019-01-06T21:37:45.718Z,0.11
2019-01-06T21:44:56.652Z,0.16
2019-01-06T22:09:58.391Z,0.02
2019-01-06T22:12:46.046Z,0.00
2019-01-06T22:15:33.335Z,0.01
2019-01-06T22:18:20.965Z,-0.05
2019-01-06T22:21:08.502Z,-0.05
2019-01-06T22:23:55.378Z,-0.09
2019-01-06T22:26:43.022Z,-0.09
2019-01-06T22:29:30.639Z,0.02
2019-01-06T22:32:17.846Z,0.08
2019-01-06T22:35:05.160Z,0.04
2019-01-06T22:37:52.789Z,-0.01
2019-01-06T22:40:40.314Z,-0.06
2019-01-06T22:43:27.947Z,-0.08
2019-01-06T22:46:16.206Z,-0.12
2019-01-06T22:49:03.430Z,-0.03
2019-01-06T22:51:51.235Z,0.03
2019-01-06T22:54:39.042Z,0.07
2019-01-06T22:57:26.653Z,0.05
2019-01-06T23:00:14.554Z,0.09
2019-01-06T23:03:02.746Z,0.05
2019-01-06T23:05:49.711Z,0.05
2019-01-06T23:08:37.175Z,0.03
2019-01-06T23:11:24.632Z,0.06
2019-01-06T23:14:12.101Z,-0.01
2019-01-06T23:16:59.349Z,0.06
2019-01-06T23:19:47.213Z,-0.01
2019-01-06T23:22:34.272Z,0.03
2019-01-06T23:25:22.250Z,0.04
2019-01-06T23:28:09.538Z,-0.02
2019-01-06T23:30:50.996Z,0.01
2019-01-06T23:33:34.629Z,0.02
2019-01-06T23:36:21.966Z,-0.05
2019-01-06T23:39:09.205Z,-0.08
2019-01-06T23:41:56.452Z,-0.04
2019-01-06T23:44:44.173Z,-0.04
2019-01-06T23:47:31.365Z,0.07
2019-01-06T23:50:15.349Z,0.12
2019-01-06T23:53:02.626Z,0.12
2019-01-06T23:55:50.267Z,0.03
2019-01-06T23:58:37.186Z,0.08
